createdAt,value
2022-09-01T00:03:20.062Z,0
2022-09-01T00:14:00.640Z,0
2022-09-01T00:24:46.190Z,0
2022-09-01T00:30:08.560Z,0
2022-09-01T00:35:37.538Z,0
2022-09-01T00:41:00.343Z,0
2022-09-01T00:46:29.336Z,0
2022-09-01T00:51:52.250Z,0
2022-09-01T00:57:14.600Z,0
2022-09-01T01:02:37.091Z,0
2022-09-01T01:08:05.292Z,0
2022-09-01T01:13:28.715Z,0
2022-09-01T01:23:55.636Z,0
2022-09-01T01:29:18.093Z,0
2022-09-01T01:34:40.655Z,0
2022-09-01T01:40:03.197Z,0
2022-09-01T01:45:25.650Z,0
2022-09-01T01:50:47.904Z,0
2022-09-01T01:56:10.713Z,0
2022-09-01T02:06:55.593Z,0
2022-09-01T02:12:20.814Z,0
2022-09-01T02:17:43.539Z,0
2022-09-01T02:23:05.857Z,0
2022-09-01T02:28:28.470Z,0
2022-09-01T02:33:53.920Z,0
2022-09-01T02:39:19.223Z,0
2022-09-01T02:44:41.857Z,0
2022-09-01T02:50:04.234Z,0
2022-09-01T02:55:26.736Z,0
2022-09-01T03:00:49.291Z,0
2022-09-01T03:06:11.917Z,0
2022-09-01T03:11:35.831Z,0
2022-09-01T03:17:02.513Z,0
2022-09-01T03:22:26.545Z,0
2022-09-01T03:27:49.148Z,0
2022-09-01T03:33:11.498Z,0
2022-09-01T03:38:34.008Z,0
2022-09-01T03:44:15.586Z,0
2022-09-01T03:49:38.492Z,0
2022-09-01T03:55:00.825Z,0
2022-09-01T04:00:23.562Z,0
2022-09-01T04:05:45.927Z,0
2022-09-01T04:11:25.196Z,0
2022-09-01T04:16:47.928Z,0
2022-09-01T04:22:53.648Z,0
2022-09-01T04:28:16.147Z,0
2022-09-01T04:33:38.563Z,0
2022-09-01T04:39:02.221Z,5
2022-09-01T04:49:48.850Z,19.6
2022-09-01T04:55:11.295Z,20.5
2022-09-01T05:00:33.882Z,22.5
2022-09-01T05:05:57.061Z,37.2
2022-09-01T05:11:20.494Z,31.2
2022-09-01T05:22:06.021Z,40.8
2022-09-01T05:27:29.522Z,46.9
2022-09-01T05:37:54.952Z,75.2
2022-09-01T05:43:17.984Z,137.5
2022-09-01T05:48:41.379Z,154.4
2022-09-01T05:54:07.144Z,144.3
2022-09-01T06:04:59.708Z,155.6
2022-09-01T06:10:22.143Z,163
2022-09-01T06:15:44.950Z,171
2022-09-01T06:21:07.674Z,171.9
2022-09-01T06:26:32.600Z,190.1
2022-09-01T06:31:55.314Z,392.7
2022-09-01T06:37:18.055Z,237.5
2022-09-01T06:42:41.255Z,1087.8
2022-09-01T06:48:03.928Z,301.8
2022-09-01T06:53:35.574Z,536.1
2022-09-01T06:58:59.783Z,252.4
2022-09-01T07:04:25.408Z,281.6
2022-09-01T07:28:04.805Z,1821.5
2022-09-01T07:33:44.850Z,1073.7
2022-09-01T07:39:48.357Z,918
2022-09-01T07:45:33.492Z,950.6
2022-09-01T07:51:42.336Z,1109.3
2022-09-01T07:57:06.484Z,1089.9
2022-09-01T08:02:29.682Z,1250.7
2022-09-01T08:07:53.208Z,1304.7
2022-09-01T08:13:16.475Z,1326.9
2022-09-01T08:23:48.159Z,1570.8
2022-09-01T08:29:11.193Z,1690.1
2022-09-01T08:34:34.059Z,1686
2022-09-01T08:39:57.059Z,1841.3
2022-09-01T08:45:23.359Z,1503.7
2022-09-01T08:50:52.939Z,1829.3
2022-09-01T08:56:16.067Z,1926.1
2022-09-01T09:01:39.131Z,1882.4
2022-09-01T09:07:02.045Z,2055.2
2022-09-01T09:17:47.460Z,1709.3
2022-09-01T09:23:10.779Z,2036.6
2022-09-01T09:28:33.409Z,1974.8
2022-09-01T09:33:56.884Z,1705.2
2022-09-01T09:39:22.643Z,1817.9
2022-09-01T09:44:46.157Z,1637.5
2022-09-01T09:50:08.857Z,1976.3
2022-09-01T09:55:31.780Z,1776.5
2022-09-01T10:00:54.626Z,1855.1
2022-09-01T10:06:19.033Z,1895.7
2022-09-01T10:11:42.344Z,1977.8
2022-09-01T10:17:25.931Z,2290.9
2022-09-01T10:22:50.978Z,2046.5
2022-09-01T10:28:21.497Z,2183
2022-09-01T10:33:45.879Z,2174.4
2022-09-01T10:39:09.416Z,2254.6
2022-09-01T10:44:39.641Z,2225.2
2022-09-01T10:50:10.441Z,2289.8
2022-09-01T10:55:36.004Z,2075.9
2022-09-01T11:01:41.252Z,2211.4
2022-09-01T11:07:12.960Z,2322.2
2022-09-01T11:12:39.010Z,1914.9
2022-09-01T11:18:05.406Z,1879.6
2022-09-01T11:23:28.434Z,1155.6
2022-09-01T11:28:50.939Z,2502.7
2022-09-01T11:34:14.457Z,1000.3
2022-09-01T11:39:37.428Z,468.3
2022-09-01T11:45:01.399Z,1982.6
2022-09-01T11:50:27.682Z,2264.8
2022-09-01T11:55:50.774Z,356.8
2022-09-01T12:01:15.586Z,2166.2
2022-09-01T12:06:37.366Z,1642.2
2022-09-01T12:12:01.142Z,1930.8
2022-09-01T12:17:24.078Z,1988.9
2022-09-01T12:22:46.273Z,449.7
2022-09-01T12:28:11.225Z,2001.9
2022-09-01T12:38:58.153Z,1697.2
2022-09-01T12:44:23.116Z,1939.8
2022-09-01T12:49:55.433Z,2154.3
2022-09-01T12:55:48.635Z,2092.4
2022-09-01T13:01:17.039Z,2325.1
2022-09-01T13:06:47.531Z,1782.1
2022-09-01T13:12:10.815Z,2072.1
2022-09-01T13:17:34.370Z,2323.9
2022-09-01T13:23:15.155Z,2228.4
2022-09-01T13:28:41.082Z,2395.6
2022-09-01T13:34:23.963Z,2221.1
2022-09-01T13:39:50.773Z,2046.1
2022-09-01T13:45:13.027Z,2282.3
2022-09-01T13:51:18.652Z,2160
2022-09-01T13:56:42.404Z,2163.6
2022-09-01T14:07:31.270Z,2121.1
2022-09-01T14:12:54.325Z,547.5
2022-09-01T14:18:15.828Z,298.7
2022-09-01T14:23:36.904Z,2174
2022-09-01T14:29:01.320Z,2240.3
2022-09-01T14:34:27.315Z,2133.4
2022-09-01T14:39:50.060Z,1896.6
2022-09-01T14:45:12.056Z,1961
2022-09-01T14:50:37.726Z,846.2
2022-09-01T14:55:58.490Z,218.7
2022-09-01T15:01:34.998Z,193.6
2022-09-01T15:06:58.258Z,212.7
2022-09-01T15:12:20.614Z,293.6
2022-09-01T15:17:54.977Z,327.6
2022-09-01T15:23:17.405Z,284.1
2022-09-01T15:28:39.942Z,248.4
2022-09-01T15:34:05.764Z,225.9
2022-09-01T15:39:38.597Z,210.8
2022-09-01T15:50:27.860Z,225.8
2022-09-01T15:56:12.713Z,229.1
2022-09-01T16:01:35.770Z,205.5
2022-09-01T16:07:07.596Z,177.2
2022-09-01T16:12:29.988Z,133.2
2022-09-01T16:17:55.583Z,138.8
2022-09-01T16:23:17.998Z,130.8
2022-09-01T16:28:43.733Z,142.2
2022-09-01T16:34:06.074Z,129.4
2022-09-01T16:39:31.145Z,118.4
2022-09-01T16:44:53.603Z,99.3
2022-09-01T16:50:16.412Z,116.7
2022-09-01T16:55:42.692Z,106
2022-09-01T17:01:06.018Z,98.1
2022-09-01T17:06:35.595Z,89.6
2022-09-01T17:11:58.344Z,76.3
2022-09-01T17:17:21.620Z,70.2
2022-09-01T17:22:44.169Z,69.4
2022-09-01T17:28:11.960Z,65.4
2022-09-01T17:33:34.244Z,42.4
2022-09-01T17:38:56.724Z,57.1
2022-09-01T17:49:42.175Z,32.9
2022-09-01T17:55:04.529Z,25.7
2022-09-01T18:00:29.509Z,20.7
2022-09-01T18:05:52.809Z,18.9
2022-09-01T18:11:15.504Z,16.8
2022-09-01T18:16:38.171Z,11
2022-09-01T18:22:00.824Z,5
2022-09-01T18:27:27.760Z,1
2022-09-01T18:32:55.983Z,0
2022-09-01T18:38:18.301Z,0
2022-09-01T18:43:40.684Z,0
2022-09-01T18:49:04.010Z,0
2022-09-01T18:54:29.244Z,0
2022-09-01T19:00:19.632Z,0
2022-09-01T19:05:50.055Z,0
2022-09-01T19:11:23.966Z,0
2022-09-01T19:16:47.084Z,0
2022-09-01T19:28:07.435Z,0
2022-09-01T19:33:31.871Z,0
2022-09-01T19:39:00.560Z,0
2022-09-01T19:44:28.140Z,0
2022-09-01T19:55:13.177Z,0
2022-09-01T20:00:36.160Z,0
2022-09-01T20:05:58.604Z,0
2022-09-01T20:16:24.166Z,0
2022-09-01T20:21:47.661Z,0
2022-09-01T20:27:10.247Z,0
2022-09-01T20:32:36.751Z,0
2022-09-01T20:37:59.115Z,0
2022-09-01T20:43:24.401Z,0
2022-09-01T20:48:58.219Z,0
2022-09-01T20:54:21.426Z,0
2022-09-01T20:59:46.477Z,0
2022-09-01T21:05:11.558Z,0
2022-09-01T21:10:36.373Z,0
2022-09-01T21:15:58.902Z,0
2022-09-01T21:21:21.259Z,0
2022-09-01T21:32:10.199Z,0
2022-09-01T21:37:32.765Z,0
2022-09-01T21:42:55.473Z,0
2022-09-01T21:48:21.037Z,0
2022-09-01T21:55:00.736Z,0
2022-09-01T22:00:26.772Z,0
2022-09-01T22:05:55.485Z,0
2022-09-01T22:11:18.064Z,0
2022-09-01T22:16:40.696Z,0
2022-09-01T22:22:07.714Z,0
2022-09-01T22:27:31.160Z,0
2022-09-01T22:32:53.822Z,0
2022-09-01T22:38:16.314Z,0
2022-09-01T22:43:39.056Z,0
2022-09-01T22:49:10.722Z,0
2022-09-01T22:54:33.596Z,0
2022-09-01T22:59:56.926Z,0
2022-09-01T23:05:19.368Z,0
2022-09-01T23:10:42.252Z,0
2022-09-01T23:16:25.870Z,0
2022-09-01T23:21:51.384Z,0
2022-09-01T23:27:13.769Z,0
2022-09-01T23:32:36.857Z,0
2022-09-01T23:37:59.566Z,0
2022-09-01T23:43:22.535Z,0
2022-09-01T23:54:07.755Z,0
2022-09-01T23:59:30.085Z,0
